Time;durP1;ratioP1;P1;durP2;ratioP2;P2;SDS_P1;SDS_P2;PMS_P1;PMS_P2;Temp;Humidity;BMP_temperature;BMP_pressure;BME280_temperature;BME280_humidity;BME280_pressure;Samples;Min_cycle;Max_cycle;Signal;HPM_P1;HPM_P2
2022/05/10 00:00:40;;;;;;;6.88;4.35;;;18.60;99.90;;;;;;4994686;28;20022;-74
2022/05/10 00:03:09;;;;;;;6.28;3.97;;;18.70;99.90;;;;;;4994735;28;20022;-74
2022/05/10 00:05:40;;;;;;;8.07;3.58;;;18.90;99.90;;;;;;4993241;28;20125;-74
2022/05/10 00:08:12;;;;;;;6.93;3.58;;;19.00;99.90;;;;;;4994713;28;20015;-75
2022/05/10 00:10:40;;;;;;;6.93;3.17;;;19.10;99.90;;;;;;4994898;28;20391;-75
2022/05/10 00:13:07;;;;;;;14.05;1.92;;;19.20;99.90;;;;;;4993328;28;20497;-75
2022/05/10 00:15:35;;;;;;;7.93;1.52;;;19.30;99.90;;;;;;4994473;28;20365;-74
2022/05/10 00:18:03;;;;;;;5.95;1.70;;;19.40;99.90;;;;;;4994093;28;20030;-74
2022/05/10 00:20:31;;;;;;;9.68;1.42;;;19.40;99.90;;;;;;4992998;28;20116;-75
2022/05/10 00:22:58;;;;;;;8.73;1.20;;;19.40;99.90;;;;;;4994510;28;20503;-74
2022/05/10 00:25:29;;;;;;;5.75;0.82;;;19.50;99.90;;;;;;4994258;28;20027;-74
2022/05/10 00:27:57;;;;;;;5.18;0.90;;;19.50;99.90;;;;;;4993018;28;20085;-75
2022/05/10 00:30:25;;;;;;;5.63;1.13;;;19.50;99.90;;;;;;4994436;28;20037;-75
2022/05/10 00:32:52;;;;;;;9.93;1.48;;;19.50;99.90;;;;;;4992710;28;20483;-75
2022/05/10 00:35:27;;;;;;;4.00;0.80;;;19.60;99.90;;;;;;4994591;28;20026;-75
2022/05/10 00:37:56;;;;;;;6.88;1.10;;;19.60;99.90;;;;;;4994186;28;20100;-75
2022/05/10 00:40:29;;;;;;;8.23;1.50;;;19.70;99.90;;;;;;4994139;28;20109;-75
2022/05/10 00:43:00;;;;;;;5.75;0.90;;;19.70;99.90;;;;;;4994386;28;20026;-75
2022/05/10 00:45:52;;;;;;;3.42;0.80;;;19.70;99.90;;;;;;4994888;28;20018;-75
2022/05/10 00:48:22;;;;;;;7.30;1.13;;;19.90;99.90;;;;;;4992701;28;20033;-76
2022/05/10 00:50:56;;;;;;;7.70;1.58;;;20.00;99.90;;;;;;4992600;28;20074;-74
2022/05/10 00:53:52;;;;;;;7.22;1.23;;;20.10;99.90;;;;;;4992718;28;20121;-74
2022/05/10 00:56:58;;;;;;;8.80;1.50;;;20.20;99.90;;;;;;4991769;28;20400;-74
2022/05/10 00:59:33;;;;;;;6.57;1.05;;;20.20;99.90;;;;;;4972131;28;20134;-74
2022/05/10 01:02:11;;;;;;;5.20;1.33;;;20.40;99.90;;;;;;4990619;28;20037;-74
2022/05/10 01:04:54;;;;;;;5.15;1.17;;;20.50;99.90;;;;;;4992309;28;20046;-74
2022/05/10 01:07:39;;;;;;;3.92;0.95;;;20.70;99.90;;;;;;4992425;28;20435;-74
2022/05/10 01:10:17;;;;;;;4.82;0.80;;;20.70;99.90;;;;;;4993697;28;20061;-75
2022/05/10 01:12:44;;;;;;;4.97;0.95;;;20.80;99.90;;;;;;4993786;28;20332;-74
2022/05/10 01:15:25;;;;;;;6.15;1.17;;;21.00;99.90;;;;;;4993493;28;20022;-74
2022/05/10 01:17:58;;;;;;;5.82;0.98;;;21.10;99.90;;;;;;4993700;28;20026;-75
2022/05/10 01:20:40;;;;;;;8.93;1.25;;;21.10;99.90;;;;;;4992243;28;20034;-74
2022/05/10 01:23:24;;;;;;;5.68;0.98;;;21.30;99.90;;;;;;4992437;28;20022;-74
2022/05/10 01:26:05;;;;;;;6.93;1.30;;;21.30;99.90;;;;;;4994078;28;20360;-74
2022/05/10 01:28:42;;;;;;;5.10;1.00;;;21.30;99.90;;;;;;4994117;28;20019;-74
2022/05/10 01:31:28;;;;;;;5.72;1.02;;;21.20;99.90;;;;;;4995404;28;20023;-74
2022/05/10 01:34:02;;;;;;;3.88;1.15;;;21.20;99.90;;;;;;4996384;28;20086;-74
2022/05/10 01:36:35;;;;;;;8.57;1.52;;;21.30;99.90;;;;;;4997683;28;20363;-75
2022/05/10 01:39:21;;;;;;;7.90;1.17;;;21.30;99.90;;;;;;4998029;28;20053;-75
2022/05/10 01:42:13;;;;;;;7.47;1.00;;;21.40;99.90;;;;;;4996402;28;20034;-75
2022/05/10 01:44:51;;;;;;;6.75;0.98;;;21.30;99.90;;;;;;4996295;28;20556;-74
2022/05/10 01:47:31;;;;;;;7.38;1.02;;;21.20;99.90;;;;;;4996247;28;20034;-75
2022/05/10 01:50:37;;;;;;;5.95;1.08;;;21.30;99.90;;;;;;4997570;28;20041;-73
2022/05/10 01:53:19;;;;;;;6.63;0.80;;;21.40;99.90;;;;;;4993460;28;20050;-74
2022/05/10 01:55:52;;;;;;;5.55;1.00;;;21.30;99.90;;;;;;4997406;28;20034;-74
2022/05/10 01:58:25;;;;;;;7.97;1.00;;;21.30;99.90;;;;;;4997522;28;20031;-74
2022/05/10 02:01:05;;;;;;;7.13;1.00;;;21.40;99.90;;;;;;4997182;28;20029;-74
2022/05/10 02:03:51;;;;;;;6.82;0.95;;;21.30;99.90;;;;;;4996089;28;20135;-74
2022/05/10 02:06:33;;;;;;;6.05;1.00;;;21.30;99.90;;;;;;4997141;28;20034;-74
2022/05/10 02:09:27;;;;;;;6.93;1.13;;;21.40;99.90;;;;;;4997613;28;20033;-74
2022/05/10 02:12:31;;;;;;;7.00;1.70;;;21.40;99.90;;;;;;4997074;28;20045;-75
2022/05/10 02:15:02;;;;;;;4.85;1.20;;;21.60;99.90;;;;;;4975429;28;20034;-74
2022/05/10 02:18:15;;;;;;;7.22;1.40;;;21.50;99.90;;;;;;4995678;28;20501;-74
2022/05/10 02:21:11;;;;;;;9.27;1.33;;;21.60;99.90;;;;;;4993416;28;20487;-75
2022/05/10 02:24:16;;;;;;;6.40;1.30;;;21.50;99.90;;;;;;4991376;28;20403;-75
2022/05/10 02:26:50;;;;;;;9.02;1.52;;;21.50;99.90;;;;;;4975254;28;20023;-75
2022/05/10 02:29:45;;;;;;;8.15;1.10;;;21.30;99.90;;;;;;4993366;28;20038;-75
2022/05/10 02:35:12;;;;;;;9.88;1.42;;;21.50;99.90;;;;;;4997135;28;20526;-75
2022/05/10 02:37:40;;;;;;;6.43;0.90;;;21.30;99.90;;;;;;4996681;28;20022;-75
2022/05/10 02:40:11;;;;;;;5.50;1.25;;;21.20;99.90;;;;;;4996378;28;20113;-74
2022/05/10 02:42:39;;;;;;;9.43;1.73;;;21.10;99.90;;;;;;4994796;28;20381;-74
2022/05/10 02:45:08;;;;;;;8.73;1.40;;;21.10;99.90;;;;;;4996354;28;20072;-75
2022/05/10 02:47:39;;;;;;;6.18;1.10;;;21.20;99.90;;;;;;4996368;28;20177;-74
2022/05/10 02:50:12;;;;;;;8.82;1.50;;;21.30;99.90;;;;;;4996861;28;20575;-74
2022/05/10 02:52:40;;;;;;;7.90;1.83;;;21.00;99.90;;;;;;4996227;28;20034;-73
2022/05/10 02:55:21;;;;;;;12.75;1.52;;;20.90;99.90;;;;;;4996296;28;20483;-74
2022/05/10 02:57:53;;;;;;;11.25;1.63;;;20.90;99.90;;;;;;4996137;28;20026;-73
2022/05/10 03:00:22;;;;;;;6.88;1.38;;;20.80;99.90;;;;;;4994730;28;20483;-74
2022/05/10 03:02:54;;;;;;;7.20;1.33;;;21.00;99.90;;;;;;4996151;28;20411;-75
2022/05/10 03:05:21;;;;;;;5.60;1.17;;;20.90;99.90;;;;;;4995994;28;20038;-75
2022/05/10 03:07:50;;;;;;;6.75;1.60;;;20.90;99.90;;;;;;4996318;28;20077;-74
2022/05/10 03:10:17;;;;;;;8.45;1.67;;;20.90;99.90;;;;;;4996042;28;20057;-75
2022/05/10 03:12:45;;;;;;;5.90;1.42;;;20.90;99.90;;;;;;4994632;28;20058;-75
2022/05/10 03:15:12;;;;;;;6.13;1.00;;;20.90;99.90;;;;;;4995973;28;20040;-75
2022/05/10 03:17:39;;;;;;;8.57;1.17;;;20.90;99.90;;;;;;4995887;28;20026;-74
2022/05/10 03:20:07;;;;;;;6.88;1.30;;;20.80;99.90;;;;;;4995671;28;20026;-75
2022/05/10 03:22:34;;;;;;;9.25;1.40;;;20.70;99.90;;;;;;4995810;28;20097;-74
2022/05/10 03:25:02;;;;;;;9.55;1.63;;;20.80;99.90;;;;;;4995635;28;20457;-74
2022/05/10 03:27:30;;;;;;;6.57;1.15;;;20.90;99.90;;;;;;4995684;28;20093;-75
2022/05/10 03:29:57;;;;;;;9.30;2.00;;;20.80;99.90;;;;;;4995832;28;20026;-74
2022/05/10 03:32:25;;;;;;;10.27;1.50;;;20.80;99.90;;;;;;4995607;28;20101;-74
2022/05/10 03:34:55;;;;;;;5.75;1.45;;;20.80;99.90;;;;;;4995474;28;20116;-75
2022/05/10 03:37:23;;;;;;;6.30;1.05;;;20.70;99.90;;;;;;4995436;28;20061;-75
2022/05/10 03:39:51;;;;;;;7.03;1.35;;;20.60;99.90;;;;;;4995332;28;20034;-74
2022/05/10 03:42:19;;;;;;;5.63;1.08;;;20.70;99.90;;;;;;4995927;28;20328;-74
2022/05/10 03:44:52;;;;;;;8.10;0.95;;;20.80;99.90;;;;;;4995179;28;20080;-74
2022/05/10 03:47:26;;;;;;;8.00;1.55;;;20.80;99.90;;;;;;4994064;28;20026;-75
2022/05/10 03:49:54;;;;;;;7.97;1.00;;;20.70;99.90;;;;;;4995378;28;20161;-74
2022/05/10 03:52:21;;;;;;;9.05;1.30;;;20.50;99.90;;;;;;4995208;28;20061;-74
2022/05/10 03:54:49;;;;;;;4.53;1.00;;;20.30;99.90;;;;;;4993014;28;20032;-74
2022/05/10 03:57:16;;;;;;;5.70;1.25;;;20.40;99.90;;;;;;4994093;28;20117;-75
2022/05/10 03:59:43;;;;;;;7.78;1.35;;;20.30;99.90;;;;;;4993639;28;20033;-74
2022/05/10 04:02:12;;;;;;;7.50;1.27;;;20.10;99.90;;;;;;4995283;28;20097;-75
2022/05/10 04:04:40;;;;;;;8.85;1.10;;;20.10;99.90;;;;;;4994705;28;20125;-74
2022/05/10 04:07:08;;;;;;;5.93;1.10;;;20.40;99.90;;;;;;4994927;28;20072;-74
2022/05/10 04:09:36;;;;;;;7.57;1.20;;;20.90;99.90;;;;;;4993512;28;20026;-74
2022/05/10 04:12:04;;;;;;;6.95;1.05;;;21.10;99.90;;;;;;4994791;28;20040;-74
2022/05/10 04:14:31;;;;;;;6.70;1.10;;;21.50;99.90;;;;;;4994770;28;20060;-74
2022/05/10 04:16:58;;;;;;;5.00;0.70;;;21.80;99.90;;;;;;4994606;28;20081;-74
2022/05/10 04:19:26;;;;;;;7.22;1.40;;;21.80;99.90;;;;;;4993446;28;20125;-74
2022/05/10 04:21:53;;;;;;;6.78;1.30;;;21.70;99.90;;;;;;4994615;28;20029;-74
2022/05/10 04:24:21;;;;;;;4.43;0.77;;;21.20;99.90;;;;;;4993321;28;20026;-74
2022/05/10 04:26:49;;;;;;;7.53;0.90;;;20.80;99.90;;;;;;4994463;28;20113;-74
2022/05/10 04:29:17;;;;;;;7.80;1.25;;;21.10;99.90;;;;;;4994572;28;20392;-74
2022/05/10 04:31:44;;;;;;;7.97;1.45;;;21.30;99.90;;;;;;4994737;28;20019;-74
2022/05/10 04:34:12;;;;;;;3.03;0.77;;;21.40;99.90;;;;;;4993095;28;20077;-74
2022/05/10 04:36:39;;;;;;;5.85;1.00;;;21.40;99.90;;;;;;4994129;28;20026;-74
2022/05/10 04:39:07;;;;;;;6.28;0.80;;;21.00;99.90;;;;;;4994279;28;20030;-74
2022/05/10 04:41:37;;;;;;;9.80;1.70;;;20.70;99.90;;;;;;4992915;28;20117;-74
2022/05/10 04:44:07;;;;;;;8.40;1.13;;;20.70;99.90;;;;;;4994250;28;20053;-75
2022/05/10 04:46:36;;;;;;;5.20;1.10;;;20.80;99.90;;;;;;4992863;28;20029;-73
2022/05/10 04:49:06;;;;;;;6.00;0.90;;;20.70;99.90;;;;;;4994296;28;20029;-74
2022/05/10 04:51:34;;;;;;;7.53;1.52;;;20.50;99.90;;;;;;4992992;28;20151;-73
2022/05/10 04:54:05;;;;;;;6.93;0.90;;;20.40;99.90;;;;;;4994201;28;20053;-75
2022/05/10 04:56:32;;;;;;;6.72;0.90;;;20.30;99.90;;;;;;4992748;28;20057;-74
2022/05/10 04:58:59;;;;;;;5.30;0.98;;;20.30;99.90;;;;;;4994175;28;20018;-74
2022/05/10 05:01:31;;;;;;;5.40;0.75;;;20.30;99.90;;;;;;4993906;28;20471;-75
2022/05/10 05:04:02;;;;;;;5.20;0.80;;;20.30;99.90;;;;;;4994086;28;20026;-74
2022/05/10 05:06:30;;;;;;;6.03;0.80;;;20.30;99.90;;;;;;4993819;28;20134;-74
2022/05/10 05:08:58;;;;;;;4.60;0.80;;;20.30;99.90;;;;;;4992724;28;20065;-73
2022/05/10 05:11:25;;;;;;;5.40;0.80;;;20.10;99.90;;;;;;4993721;28;20453;-74
2022/05/10 05:13:53;;;;;;;3.53;0.68;;;20.00;99.90;;;;;;4992625;28;20113;-74
2022/05/10 05:16:20;;;;;;;3.55;0.70;;;20.10;99.90;;;;;;4992485;28;20434;-75
2022/05/10 05:18:48;;;;;;;6.15;0.70;;;20.30;99.90;;;;;;4992912;28;20018;-74
2022/05/10 05:21:15;;;;;;;5.57;1.33;;;20.30;99.90;;;;;;4992488;28;20031;-74
2022/05/10 05:23:43;;;;;;;5.55;0.88;;;20.40;99.90;;;;;;4992342;28;20033;-74
2022/05/10 05:26:11;;;;;;;6.07;0.93;;;20.40;99.90;;;;;;4993649;28;20018;-75
2022/05/10 05:28:39;;;;;;;7.15;1.20;;;20.40;99.90;;;;;;4993727;28;20383;-74
2022/05/10 05:31:07;;;;;;;5.70;1.10;;;20.30;99.90;;;;;;4993812;28;20026;-74
2022/05/10 05:33:34;;;;;;;7.22;0.98;;;20.30;99.90;;;;;;4993732;28;20019;-74
2022/05/10 05:36:01;;;;;;;4.55;0.73;;;20.20;99.90;;;;;;4992410;28;20038;-74
2022/05/10 05:38:29;;;;;;;3.47;0.80;;;20.10;99.90;;;;;;4993589;28;20037;-75
2022/05/10 05:40:56;;;;;;;5.60;0.80;;;20.10;99.90;;;;;;4992316;28;20030;-74
2022/05/10 05:43:24;;;;;;;5.70;0.70;;;20.20;99.90;;;;;;4992399;28;20026;-74
2022/05/10 05:45:52;;;;;;;5.88;1.30;;;20.10;99.90;;;;;;4992147;28;20121;-74
2022/05/10 05:48:20;;;;;;;3.70;0.70;;;20.20;99.90;;;;;;4993427;28;20419;-75
2022/05/10 05:50:48;;;;;;;5.93;0.95;;;20.20;99.90;;;;;;4992138;28;20022;-75
2022/05/10 05:53:15;;;;;;;5.90;0.85;;;20.20;99.90;;;;;;4993435;28;20026;-75
2022/05/10 05:55:42;;;;;;;6.10;0.80;;;20.10;99.90;;;;;;4993403;28;20105;-75
2022/05/10 05:58:13;;;;;;;7.68;1.17;;;20.00;99.90;;;;;;4991969;28;20510;-74
2022/05/10 06:00:41;;;;;;;6.57;1.23;;;19.90;99.90;;;;;;4993436;28;20050;-75
2022/05/10 06:03:09;;;;;;;5.82;1.15;;;19.80;99.90;;;;;;4993306;28;20101;-75
2022/05/10 06:05:36;;;;;;;4.60;0.90;;;19.80;99.90;;;;;;4992182;28;20166;-75
2022/05/10 06:08:06;;;;;;;5.72;1.08;;;19.80;99.90;;;;;;4992011;28;20440;-75
2022/05/10 06:10:33;;;;;;;7.93;1.17;;;19.80;99.90;;;;;;4992015;28;20026;-74
2022/05/10 06:13:03;;;;;;;6.15;1.25;;;19.80;99.90;;;;;;4992044;28;20027;-74
2022/05/10 06:15:32;;;;;;;6.32;1.70;;;19.70;99.90;;;;;;4993640;28;20029;-74
2022/05/10 06:17:59;;;;;;;7.20;1.92;;;19.70;99.90;;;;;;4994960;28;20038;-75
2022/05/10 06:20:27;;;;;;;8.48;1.40;;;19.60;99.90;;;;;;4995690;28;20387;-74
2022/05/10 06:22:55;;;;;;;6.20;1.05;;;19.40;99.90;;;;;;4996765;28;20022;-75
2022/05/10 06:25:24;;;;;;;4.53;1.00;;;19.40;99.90;;;;;;4996867;28;20019;-76
2022/05/10 06:27:55;;;;;;;7.88;1.45;;;19.40;99.90;;;;;;4995541;28;20027;-74
2022/05/10 06:30:24;;;;;;;4.15;0.70;;;19.30;99.90;;;;;;4996582;28;20030;-74
2022/05/10 06:32:54;;;;;;;7.70;1.00;;;19.30;99.90;;;;;;4995717;28;20180;-74
2022/05/10 06:35:22;;;;;;;3.75;0.50;;;19.20;99.90;;;;;;4997033;28;20026;-74
2022/05/10 06:40:35;;;;;;;5.90;0.95;;;19.10;99.90;;;;;;4997156;28;20498;-75
2022/05/10 06:43:03;;;;;;;6.95;1.00;;;19.10;99.90;;;;;;4996640;28;20027;-76
2022/05/10 06:45:30;;;;;;;5.93;0.88;;;19.10;99.90;;;;;;4995130;28;20023;-75
2022/05/10 06:47:58;;;;;;;5.90;0.80;;;19.00;99.90;;;;;;4996564;28;20057;-76
2022/05/10 06:50:26;;;;;;;3.47;0.70;;;18.90;99.90;;;;;;4996384;28;20026;-75
2022/05/10 06:52:57;;;;;;;4.65;0.57;;;18.90;99.90;;;;;;4996311;28;20022;-76
2022/05/10 06:55:30;;;;;;;5.45;0.70;;;18.70;99.90;;;;;;4996244;28;20082;-75
2022/05/10 06:57:58;;;;;;;2.70;0.52;;;18.70;99.90;;;;;;4996458;28;20023;-75
2022/05/10 07:00:25;;;;;;;4.82;0.85;;;18.60;99.90;;;;;;4996173;28;20076;-74
2022/05/10 07:02:53;;;;;;;5.20;1.02;;;18.50;99.90;;;;;;4995023;28;20121;-74
2022/05/10 07:05:20;;;;;;;6.40;0.82;;;18.40;99.90;;;;;;4995793;28;20076;-74
2022/05/10 07:07:48;;;;;;;3.33;0.70;;;18.40;99.90;;;;;;4996456;28;20521;-74
2022/05/10 07:10:18;;;;;;;3.67;0.50;;;18.40;99.90;;;;;;4996099;28;20033;-76
2022/05/10 07:12:45;;;;;;;4.90;0.70;;;18.40;99.90;;;;;;4994745;28;20122;-74
2022/05/10 07:15:19;;;;;;;6.53;0.60;;;18.30;99.90;;;;;;4995868;28;20455;-74
2022/05/10 07:17:46;;;;;;;6.40;1.10;;;18.30;99.90;;;;;;4996735;28;20451;-74
2022/05/10 07:20:15;;;;;;;5.70;1.05;;;18.30;99.90;;;;;;4994412;28;20026;-75
2022/05/10 07:22:42;;;;;;;5.78;0.90;;;18.30;99.90;;;;;;4995787;28;20015;-74
2022/05/10 07:25:19;;;;;;;5.55;0.73;;;18.40;99.90;;;;;;4995659;28;20160;-74
2022/05/10 07:27:46;;;;;;;3.85;1.17;;;18.40;99.90;;;;;;4995052;28;20021;-74
2022/05/10 07:30:15;;;;;;;4.95;0.60;;;18.40;99.90;;;;;;4993987;28;20060;-74
2022/05/10 07:32:43;;;;;;;5.85;0.80;;;18.40;99.90;;;;;;4995609;28;20506;-74
2022/05/10 07:35:11;;;;;;;5.85;0.60;;;18.40;99.90;;;;;;4995566;28;20023;-74
2022/05/10 07:37:39;;;;;;;4.95;0.80;;;18.50;99.90;;;;;;4995639;28;20110;-74
2022/05/10 07:40:09;;;;;;;6.32;0.90;;;18.50;99.90;;;;;;4995524;28;20084;-75
2022/05/10 07:42:38;;;;;;;4.85;0.90;;;18.50;99.90;;;;;;4994068;28;20022;-74
2022/05/10 07:45:08;;;;;;;5.57;0.88;;;18.40;99.90;;;;;;4995695;28;20594;-75
2022/05/10 07:47:36;;;;;;;6.45;1.00;;;18.30;99.90;;;;;;4995649;28;20014;-74
2022/05/10 07:50:03;;;;;;;5.93;0.98;;;18.30;99.90;;;;;;4995563;28;20056;-75
2022/05/10 07:52:31;;;;;;;6.10;1.75;;;18.20;99.90;;;;;;4994157;28;20109;-75
2022/05/10 07:55:00;;;;;;;5.05;1.15;;;18.20;99.90;;;;;;4995676;28;20499;-73
2022/05/10 07:57:27;;;;;;;4.70;1.08;;;18.20;99.90;;;;;;4994984;28;20030;-73
2022/05/10 07:59:54;;;;;;;4.90;0.77;;;18.20;99.90;;;;;;4995014;28;20077;-73
2022/05/10 08:02:22;;;;;;;6.25;1.20;;;18.20;99.90;;;;;;4993708;28;20018;-73
2022/05/10 08:04:49;;;;;;;5.80;0.80;;;18.20;99.90;;;;;;4993275;28;20116;-73
2022/05/10 08:07:17;;;;;;;7.43;1.20;;;18.20;99.90;;;;;;4994827;28;20491;-73
2022/05/10 08:09:44;;;;;;;4.38;0.90;;;18.20;99.90;;;;;;4994820;28;20044;-73
2022/05/10 08:12:11;;;;;;;5.82;1.33;;;18.10;99.90;;;;;;4994707;28;20077;-73
2022/05/10 08:14:39;;;;;;;4.07;1.17;;;18.20;99.90;;;;;;4994814;28;20053;-73
2022/05/10 08:17:06;;;;;;;3.83;0.90;;;18.10;99.90;;;;;;4994989;28;20097;-74
2022/05/10 08:19:33;;;;;;;5.18;0.98;;;18.20;99.90;;;;;;4993235;28;20033;-73
2022/05/10 08:22:01;;;;;;;4.28;1.10;;;18.20;99.90;;;;;;4995064;28;20055;-73
2022/05/10 08:24:28;;;;;;;5.72;0.50;;;18.20;99.90;;;;;;4993175;28;20033;-73
2022/05/10 08:26:56;;;;;;;6.35;0.77;;;18.20;99.90;;;;;;4993144;28;20123;-73
2022/05/10 08:29:23;;;;;;;3.17;0.70;;;18.20;99.90;;;;;;4994260;28;20018;-74
2022/05/10 08:31:50;;;;;;;3.90;0.70;;;18.20;99.90;;;;;;4994311;28;20030;-74
2022/05/10 08:34:19;;;;;;;4.30;0.80;;;18.20;99.90;;;;;;4994342;28;20022;-74
2022/05/10 08:36:47;;;;;;;;;;;18.20;99.90;;;;;;4994730;28;20510;-73
2022/05/10 08:39:15;;;;;;;5.70;1.60;;;18.10;99.90;;;;;;4992528;28;19933;-74
2022/05/10 08:41:57;;;;;;;3.35;0.90;;;18.00;99.90;;;;;;4994210;28;20026;-74
2022/05/10 08:44:38;;;;;;;5.15;1.17;;;18.10;99.90;;;;;;4994183;28;20026;-72
2022/05/10 08:47:10;;;;;;;7.75;1.08;;;18.00;99.90;;;;;;4994248;28;20025;-73
2022/05/10 08:50:09;;;;;;;4.88;0.80;;;17.90;99.90;;;;;;4992919;28;20034;-74
2022/05/10 08:52:43;;;;;;;8.18;1.15;;;17.90;99.90;;;;;;4986345;28;20041;-74
2022/05/10 08:55:12;;;;;;;7.80;1.10;;;17.80;99.90;;;;;;4994005;28;20154;-74
2022/05/10 08:57:48;;;;;;;6.15;1.23;;;17.80;99.90;;;;;;4994049;28;20101;-74
2022/05/10 09:00:27;;;;;;;4.97;1.25;;;17.80;99.90;;;;;;4992507;28;20030;-74
2022/05/10 09:02:57;;;;;;;8.93;1.40;;;17.80;99.90;;;;;;4992668;28;20023;-74
2022/05/10 09:05:30;;;;;;;6.73;1.10;;;17.70;99.90;;;;;;4993772;28;20046;-74
2022/05/10 09:08:11;;;;;;;5.25;1.08;;;17.60;99.90;;;;;;4993876;28;20022;-74
2022/05/10 09:10:45;;;;;;;;;;;17.60;99.90;;;;;;4994437;28;20031;-74
2022/05/10 09:13:16;;;;;;;6.03;0.90;;;17.60;99.90;;;;;;4993767;28;20015;-75
2022/05/10 09:15:58;;;;;;;5.20;0.93;;;17.60;99.90;;;;;;4992492;28;20034;-74
2022/05/10 09:18:28;;;;;;;6.55;0.93;;;17.50;99.90;;;;;;4994424;28;20061;-74
2022/05/10 09:21:11;;;;;;;3.53;0.85;;;17.50;99.90;;;;;;4993775;28;20054;-74
2022/05/10 09:24:08;;;;;;;3.75;0.93;;;17.50;99.90;;;;;;4992781;28;20048;-74
2022/05/10 09:26:39;;;;;;;3.22;0.85;;;17.50;99.90;;;;;;4993763;28;20022;-74
2022/05/10 09:29:35;;;;;;;6.82;1.00;;;17.40;99.90;;;;;;4994069;28;20019;-73
2022/05/10 09:35:07;;;;;;;6.43;1.17;;;17.50;99.90;;;;;;4993730;28;20033;-74
2022/05/10 09:37:57;;;;;;;6.82;0.95;;;17.60;99.90;;;;;;4993882;28;20014;-73
2022/05/10 09:40:43;;;;;;;6.10;0.80;;;17.50;99.90;;;;;;4982122;28;20049;-73
2022/05/10 09:43:33;;;;;;;5.13;0.88;;;17.50;99.90;;;;;;4992427;28;20031;-73
2022/05/10 09:46:18;;;;;;;6.00;1.15;;;17.40;99.90;;;;;;4993552;28;20026;-73
2022/05/10 09:48:47;;;;;;;4.85;1.02;;;17.40;99.90;;;;;;4993422;28;20014;-72
2022/05/10 09:51:33;;;;;;;5.78;0.77;;;17.30;99.90;;;;;;4993856;28;20495;-73
2022/05/10 09:54:18;;;;;;;4.22;1.05;;;17.40;99.90;;;;;;4997712;28;20046;-73
2022/05/10 09:56:51;;;;;;;4.65;1.10;;;17.40;99.90;;;;;;4997462;28;20029;-73
2022/05/10 09:59:24;;;;;;;3.67;0.95;;;17.40;99.90;;;;;;4997296;28;20034;-72
2022/05/10 10:01:55;;;;;;;5.18;1.50;;;17.40;99.90;;;;;;4997856;28;20514;-73
2022/05/10 10:04:22;;;;;;;5.65;0.90;;;17.40;99.90;;;;;;4996948;28;20023;-72
2022/05/10 10:07:06;;;;;;;6.00;1.30;;;17.40;99.90;;;;;;4995918;28;20022;-73
2022/05/10 10:09:39;;;;;;;3.00;0.73;;;17.40;99.90;;;;;;4997351;28;20054;-73
2022/05/10 10:12:17;;;;;;;5.30;1.00;;;17.40;99.90;;;;;;4997058;28;20032;-73
2022/05/10 10:14:48;;;;;;;4.88;0.98;;;17.40;99.90;;;;;;4997134;28;20022;-73
2022/05/10 10:17:22;;;;;;;7.57;0.88;;;17.30;99.90;;;;;;4997362;28;20022;-71
2022/05/10 10:20:09;;;;;;;3.60;0.75;;;17.30;99.90;;;;;;4996940;28;20026;-73
2022/05/10 10:22:49;;;;;;;5.50;1.17;;;17.30;99.90;;;;;;4995690;28;20029;-73
2022/05/10 10:25:33;;;;;;;6.70;0.95;;;17.20;99.90;;;;;;4996950;28;20142;-73
2022/05/10 10:28:18;;;;;;;5.95;0.75;;;17.30;99.90;;;;;;4996788;28;20026;-72
2022/05/10 10:31:15;;;;;;;2.60;0.55;;;17.20;99.90;;;;;;4997120;28;20023;-74
2022/05/10 10:34:03;;;;;;;5.43;0.60;;;17.30;99.90;;;;;;4992263;28;20038;-73
2022/05/10 10:37:00;;;;;;;3.72;0.90;;;17.30;99.90;;;;;;4997145;28;20455;-71
2022/05/10 10:39:34;;;;;;;5.38;0.80;;;17.30;99.90;;;;;;4994512;28;20376;-73
2022/05/10 10:42:51;;;;;;;5.68;0.82;;;17.30;99.90;;;;;;4995241;28;20022;-71
2022/05/10 10:45:33;;;;;;;3.60;0.60;;;17.30;99.90;;;;;;4955369;29;20087;-70
2022/05/10 10:48:23;;;;;;;6.57;0.98;;;17.30;99.90;;;;;;4955421;29;20050;-70
2022/05/10 10:50:51;;;;;;;3.72;0.70;;;17.30;99.90;;;;;;4986553;28;20034;-71
2022/05/10 10:53:21;;;;;;;5.85;0.80;;;17.40;99.90;;;;;;4996209;28;20041;-71
2022/05/10 10:55:48;;;;;;;;;;;17.40;99.90;;;;;;4996469;28;20030;-72
2022/05/10 10:58:38;;;;;;;7.13;0.80;;;17.40;99.90;;;;;;4994820;28;20366;-72
2022/05/10 11:01:33;;;;;;;5.35;1.05;;;17.40;99.90;;;;;;4976267;28;20045;-74
2022/05/10 11:04:24;;;;;;;5.05;0.80;;;17.40;99.90;;;;;;4994223;28;20088;-74
2022/05/10 11:06:55;;;;;;;3.33;0.68;;;17.40;99.90;;;;;;4994716;28;20407;-74
2022/05/10 11:09:23;;;;;;;4.45;0.70;;;17.40;99.90;;;;;;4995725;28;20105;-74
2022/05/10 11:12:12;;;;;;;5.50;0.65;;;17.30;99.90;;;;;;4995773;28;20026;-75
2022/05/10 11:14:52;;;;;;;4.13;0.85;;;17.40;99.90;;;;;;4995775;28;20064;-75
2022/05/10 11:17:38;;;;;;;3.50;0.70;;;17.50;99.90;;;;;;4995918;28;20499;-75
2022/05/10 11:20:16;;;;;;;5.97;1.25;;;17.40;99.90;;;;;;4995966;28;20029;-75
2022/05/10 11:22:52;;;;;;;3.85;0.70;;;17.40;99.90;;;;;;4996239;28;20027;-76
2022/05/10 11:25:50;;;;;;;5.53;0.73;;;17.50;99.90;;;;;;4995882;28;20025;-76
2022/05/10 11:28:35;;;;;;;4.68;0.70;;;17.50;99.90;;;;;;4995981;28;20026;-76
2022/05/10 11:31:38;;;;;;;7.32;0.90;;;17.50;99.90;;;;;;4995468;28;20026;-76
2022/05/10 11:34:31;;;;;;;3.97;0.43;;;17.50;99.90;;;;;;4988785;28;20083;-75
2022/05/10 11:37:00;;;;;;;5.38;0.65;;;17.60;99.90;;;;;;4994106;28;20027;-75
2022/05/10 11:39:53;;;;;;;3.85;1.05;;;17.60;99.90;;;;;;4994121;28;20121;-75
2022/05/10 11:42:24;;;;;;;4.35;0.90;;;17.60;99.90;;;;;;4995336;28;20019;-76
2022/05/10 11:45:13;;;;;;;4.32;0.57;;;17.80;99.90;;;;;;4995729;28;20065;-76
2022/05/10 11:48:17;;;;;;;5.80;0.70;;;17.90;99.90;;;;;;4995282;28;20015;-75
2022/05/10 11:54:38;;;;;;;3.42;0.52;;;17.90;99.90;;;;;;4991523;28;20045;-76
2022/05/10 11:57:10;;;;;;;5.03;0.50;;;17.90;99.90;;;;;;4995601;28;20077;-77
2022/05/10 11:59:40;;;;;;;6.03;0.63;;;18.00;99.90;;;;;;4993738;28;20031;-76
2022/05/10 12:02:30;;;;;;;3.97;0.57;;;18.00;99.90;;;;;;4995075;28;20081;-76
2022/05/10 12:05:41;;;;;;;5.63;0.82;;;18.00;99.90;;;;;;4994719;28;20535;-76
2022/05/10 12:08:28;;;;;;;4.13;0.90;;;18.00;99.90;;;;;;4994176;28;20056;-76
2022/05/10 12:10:55;;;;;;;5.10;0.60;;;18.00;99.90;;;;;;4993449;28;20030;-78
2022/05/10 12:22:17;;;;;;;3.75;0.50;;;18.00;99.90;;;;;;4994989;28;20065;-76
2022/05/10 12:24:50;;;;;;;4.27;0.60;;;18.00;99.90;;;;;;4994783;28;20133;-77
2022/05/10 12:27:17;;;;;;;6.78;0.82;;;18.10;99.90;;;;;;4994728;28;20025;-75
2022/05/10 12:29:48;;;;;;;3.90;0.70;;;18.10;99.90;;;;;;4994568;28;20077;-76
2022/05/10 12:32:53;;;;;;;7.00;1.15;;;18.10;99.90;;;;;;4994780;28;20053;-76
2022/05/10 12:35:35;;;;;;;5.55;0.60;;;18.20;99.90;;;;;;4953731;29;20046;-75
2022/05/10 12:38:02;;;;;;;5.40;0.80;;;18.20;99.90;;;;;;4953915;29;20031;-76
2022/05/10 12:40:34;;;;;;;6.60;1.00;;;18.20;99.90;;;;;;4977823;28;20410;-76
2022/05/10 12:43:38;;;;;;;3.30;0.73;;;18.00;99.90;;;;;;4994607;28;20018;-75
2022/05/10 12:46:23;;;;;;;3.47;0.70;;;18.00;99.90;;;;;;4994459;28;20018;-75
2022/05/10 12:49:11;;;;;;;7.57;0.73;;;18.10;99.90;;;;;;4992995;28;20110;-76
2022/05/10 12:51:46;;;;;;;3.65;0.77;;;18.00;99.90;;;;;;4993017;28;20026;-75
2022/05/10 12:54:26;;;;;;;4.00;0.57;;;18.00;99.90;;;;;;4994126;28;20034;-75
2022/05/10 12:57:12;;;;;;;2.88;0.50;;;17.90;99.90;;;;;;4994097;28;20027;-75
2022/05/10 12:59:56;;;;;;;4.30;1.27;;;17.70;99.90;;;;;;4994245;28;20125;-75
2022/05/10 13:02:24;;;;;;;8.20;1.50;;;17.60;99.90;;;;;;4993939;28;20026;-75
2022/05/10 13:04:57;;;;;;;6.15;1.30;;;17.40;99.90;;;;;;4991255;28;20050;-75
2022/05/10 13:07:54;;;;;;;5.53;0.73;;;17.20;99.90;;;;;;4994077;28;20018;-75
2022/05/10 13:10:23;;;;;;;8.52;1.08;;;17.00;99.90;;;;;;4994274;28;20094;-75
2022/05/10 13:13:09;;;;;;;7.95;0.98;;;16.90;99.90;;;;;;4993767;28;20018;-75
2022/05/10 13:15:48;;;;;;;8.68;1.23;;;16.80;99.90;;;;;;4993746;28;20493;-75
2022/05/10 13:18:22;;;;;;;7.35;0.93;;;16.80;99.90;;;;;;4992457;28;20173;-75
2022/05/10 13:20:56;;;;;;;6.95;1.33;;;16.70;99.90;;;;;;4993970;28;20037;-75
2022/05/10 13:23:29;;;;;;;8.70;1.00;;;16.60;99.90;;;;;;4993503;28;20023;-75
2022/05/10 13:26:05;;;;;;;8.55;1.20;;;16.60;99.90;;;;;;4993842;28;20070;-74
2022/05/10 13:28:32;;;;;;;7.10;1.00;;;16.60;99.90;;;;;;4992259;28;20108;-75
2022/05/10 13:31:01;;;;;;;7.00;0.90;;;16.50;99.90;;;;;;4992265;28;20027;-75
2022/05/10 13:33:35;;;;;;;8.98;1.42;;;16.50;99.90;;;;;;4993743;28;20506;-75
2022/05/10 13:36:07;;;;;;;6.93;0.98;;;16.50;99.90;;;;;;4993611;28;20026;-75
2022/05/10 13:38:36;;;;;;;11.55;1.35;;;16.40;99.90;;;;;;4992183;28;20030;-75
2022/05/10 13:41:06;;;;;;;7.05;1.15;;;16.40;99.90;;;;;;4993371;28;20500;-75
2022/05/10 13:43:42;;;;;;;8.35;1.45;;;16.40;99.90;;;;;;4992079;28;20023;-76
2022/05/10 13:46:25;;;;;;;9.82;1.70;;;16.40;99.90;;;;;;4992147;28;20394;-75